Etusivu
METAR-TAF:

METAR-TAF

Lentoasemat :

Koumac, Uusi-Kaledonia

Leveyspiiri: 20-34S, Pituuspiiri: 164-17E, korkeus merenpinnasta: 23 m

METAR: puuttuu

Aika: 07:06 (20:06 UTC)

Sääennuste

Tämä raportti tehtiin 3 tuntia ja 6 minuuttia sitten, kello 17.00 UTC
Ennuste voimassa 01. päivästä klo 18 UTC - 02. päivään klo 18 UTC
Tuuli 2 kn eri suunnista
Näkyvyys 10 km tai enemmän
Muutamia pilviä 4000 ft:n korkeudessa
Hajanaisia pilviä 5000 ft:n korkeudessa
Tulossa
01. päivästä klo 22 UTC - 02. päivään klo 01 UTC
Tuuli 10 kn lounaasta
Tulossa
02. päivästä klo 06 UTC - 02. päivään klo 08 UTC
Tuuli 2 kn eri suunnista

TAF: NWWK 011700Z 0118/0218 VRB02KT 9999 FEW040 SCT050 BECMG 0122/0201 22010KT BECMG 0206/0208 VRB02KT

Säähavainnot ja -ennusteet yli 4000 lentoasemalta (METAR- ja TAF-raportit).

Käytössä olevat sääasemat on merkitty karttaan keltaisilla ja punaisilla pisteillä.

Aseta hiiri pisteen päälle nähdäksesi sääaseman nimen.

Klikkaa sitten nähdäksesi säähavainnot ja -ennusteet.

Kartan vaihtaminen: klikkaa mustalla rastilla varustettuja vihreitä pisteitä, niin voit zoomata sisään; viivalla varustettua vihreää pistettä, niin voit zoomata ulos tai vihreitä nuolia, niin pääset viereisille kartoille.


METAR-TAF: